Station: Cape Flattery  

  Atmospheric Gas Attenuation - ITU Rec 676-11   ----------------- dB/100km -----------------
Date Time Temp RH % AH g/m3 Dew Point Wind Direction Speed kph Gust kph Barometer mB Rainfall Since 9am 24GHz 47GHz 76GHz 122GHz 134GHz 241GHz
08/05 12:40 28.4 74 20.57 23.3 37 46 1012.8 0.4 43.9 41.3 81.0 214.4 238.3 828.2
08/05 12:30 28.8 71 20.17 23.2 39 54 1012.8 0.4 43.0 40.4 78.7 208.3 231.0 802.8
08/05 12:20 28.2 74 20.35 23.1 41 46 1013 0.4 43.5 41.0 80.2 212.3 235.6 818.8
08/05 12:10 28.5 73 20.41 23.2 37 48 1013.1 0.4 43.6 41.0 80.2 212.2 235.6 818.8
08/05 12:00 28.7 75 21.2 23.8 39 50 1013.2 0.4 45.2 42.4 83.7 221.5 247.1 858.7
08/05 11:50 29 78 22.41 24.8 30 33 1013.4 0.4 47.7 44.6 89.1 236.0 265.0 921.1
08/05 11:40 27.9 77 20.83 23.5 39 44 1013.4 0.4 44.5 42.1 82.8 219.2 244.0 848.0
08/05 11:30 28.3 76 21.01 23.7 39 50 1013.6 0.4 44.8 42.3 83.2 220.3 245.5 853.3
08/05 11:20 28.3 81 22.4 24.7 30 37 1013.7 0.4 47.8 44.9 90.0 238.2 267.4 929.3
08/05 11:10 27.5 82 21.7 24.1 33 43 1013.8 0.4 46.4 44.0 87.5 231.6 259.1 900.4
08/05 11:00 27.2 81 21.08 23.7 33 46 1013.9 0.4 45.1 43.0 84.8 224.5 250.3 869.8
08/05 10:50 26.3 87 21.54 24 32 39 1014.1 0.4 46.2 44.4 88.1 233.3 260.8 906.1
08/05 10:40 25.5 88 20.83 23.4 37 46 1014.2 0.4 44.8 43.4 85.6 226.4 252.2 876.0
08/05 10:30 25.3 92 21.54 23.9 37 44 1014.3 0.4 46.3 44.9 89.3 236.4 264.4 918.4
08/05 10:20 25.3 91 21.3 23.7 35 43 1014.4 0.4 45.8 44.4 88.1 233.3 260.5 904.9
08/05 10:10 26.5 82 20.53 23.2 37 46 1014.3 0 44.0 42.3 83.0 219.6 244.1 848.0
08/05 10:00 28.3 76 21.01 23.7 35 46 1014.2 0 44.8 42.3 83.3 220.4 245.6 853.6
08/05 09:50 28.7 74 20.91 23.6 35 44 1014.2 0 44.6 41.9 82.4 218.0 242.8 843.8
08/05 09:40 28.3 75 20.74 23.4 32 44 1014.2 0 44.3 41.8 82.0 217.0 241.4 839.2
08/05 09:30 28.3 76 21.01 23.7 35 48 1014.1 0 44.8 42.3 83.3 220.4 245.6 853.6
08/05 09:20 28.1 74 20.24 23 39 46 1014.1 0 43.2 40.9 79.9 211.3 234.4 814.7
08/05 09:10 28.1 74 20.24 23.2 32 43 1014.1 0 43.2 40.9 79.9 211.3 234.4 814.7
08/05 09:00 27.6 75 19.95 22.8 33 44 1014.2 0 42.7 40.6 79.0 209.1 231.6 804.7
08/05 08:50 27.9 75 20.29 23.1 32 41 1014.1 0 43.4 41.1 80.3 212.5 235.8 819.5
08/05 08:40 28.1 74 20.24 23 35 43 1014 0 43.2 40.9 79.9 211.3 234.4 814.6
08/05 08:30 27.7 75 20.06 22.9 35 46 1013.8 0 42.9 40.8 79.4 210.2 232.9 809.2
08/05 08:20 27.4 79 20.79 23.4 32 39 1013.8 0 44.5 42.3 83.2 220.2 245.1 851.7
08/05 08:10 27.1 78 20.19 22.9 33 39 1013.7 0 43.3 41.3 80.7 213.5 236.7 822.6
08/05 08:00 26.6 84 21.15 23.7 32 44 1013.6 0 45.3 43.4 85.8 227.2 253.4 880.5
08/05 07:50 26.2 83 20.43 23.1 35 43 1013.4 0 43.9 42.2 82.8 219.0 243.3 845.4
08/05 07:40 26.2 86 21.17 23.7 33 39 1013.4 0 45.4 43.6 86.4 228.6 255.1 886.2
08/05 07:30 25.8 85 20.46 23.1 30 39 1013.3 0 44.0 42.5 83.3 220.6 245.1 851.5
08/05 07:20 25.3 87 20.37 23 26 33 1013.3 0 43.8 42.5 83.5 220.9 245.3 852.2
08/05 07:10 25.1 89 20.6 23.2 30 32 1013.2 0 44.4 43.1 84.8 224.4 249.7 867.2
08/05 07:00 24.9 90 20.6 23.1 26 39 1013 0 44.4 43.2 85.0 225.0 250.3 869.4
08/05 06:50 24.8 91 20.71 23.2 19 22 1012.9 0 44.6 43.5 85.7 226.7 252.4 876.7
08/05 06:40 24.8 89 20.26 22.9 30 35 1012.8 0 43.7 42.6 83.4 220.8 245.1 851.5
08/05 06:30 24.5 91 20.37 22.9 26 35 1012.7 0 43.9 42.9 84.3 223.1 247.9 861.0
08/05 06:20 24.3 91 20.14 22.7 22 24 1012.7 0 43.5 42.6 83.4 220.7 244.9 850.4
08/05 06:10 24.5 88 19.69 22.4 30 37 1012.6 0 42.5 41.6 81.0 214.3 237.0 823.2
08/05 06:00 25.5 83 19.65 22.4 30 41 1012.5 0 42.3 41.0 79.7 210.9 233.2 810.1
08/05 05:50 25.4 82 19.3 22.1 32 39 1012.3 0 41.6 40.4 78.1 206.7 228.1 792.2
08/05 05:40 25.5 83 19.65 22.4 30 35 1012.2 0 42.3 41.0 79.7 210.9 233.2 810.0
08/05 05:30 25.4 84 19.78 22.5 30 39 1012.2 0 42.6 41.3 80.4 212.8 235.5 818.1
08/05 05:20 25.2 84 19.55 22.3 30 33 1012.1 0 42.1 40.9 79.5 210.4 232.5 807.7
08/05 05:10 25.2 84 19.55 22.3 30 37 1012 0 42.1 40.9 79.5 210.4 232.5 807.6
08/05 05:00 25.2 83 19.32 22.1 28 37 1012 0 41.6 40.5 78.4 207.5 228.9 795.2
08/05 04:50 25.2 83 19.32 22.1 30 33 1012 0 41.6 40.5 78.4 207.5 228.9 795.2
08/05 04:40 25.2 82 19.09 21.9 26 33 1012 0 41.1 40.1 77.3 204.6 225.4 782.8
08/05 04:30 25.2 82 19.09 21.9 28 37 1012.1 0 41.1 40.1 77.3 204.6 225.4 782.9
08/05 04:20 25.3 82 19.2 22 28 32 1012.2 0 41.4 40.2 77.8 205.7 226.8 787.8
08/05 04:10 25.3 82 19.2 22 30 33 1012.2 0 41.4 40.2 77.8 205.7 226.8 787.8
08/05 04:00 25.3 81 18.96 21.8 28 41 1012.2 0 40.8 39.8 76.6 202.7 223.1 774.9
08/05 03:50 25.3 81 18.96 21.8 26 32 1012.2 0 40.8 39.8 76.6 202.7 223.1 774.9
08/05 03:40 25.4 83 19.54 22.3 30 35 1012 0 42.1 40.8 79.3 209.7 231.7 805.0
08/05 03:30 25.4 83 19.54 22.3 28 37 1012 0 42.1 40.8 79.3 209.7 231.7 805.0
08/05 03:20 25.4 84 19.78 22.5 26 30 1012 0 42.6 41.3 80.4 212.8 235.5 818.0
08/05 03:10 25.4 83 19.54 22.3 26 30 1012 0 42.1 40.8 79.3 209.7 231.7 805.0
08/05 03:00 25.5 82 19.41 22.2 30 39 1012 0 41.8 40.5 78.5 207.8 229.4 796.9
08/05 02:50 25.5 83 19.65 22.4 30 35 1012 0 42.3 41.0 79.7 210.8 233.1 809.8
08/05 02:40 25.3 84 19.66 22.4 26 33 1012 0 42.3 41.1 79.9 211.5 233.9 812.5
08/05 02:30 25.3 84 19.66 22.4 26 35 1012 0 42.3 41.1 79.9 211.5 233.9 812.5
08/05 02:20 25.3 84 19.66 22.4 26 32 1012.1 0 42.3 41.1 79.9 211.5 233.9 812.6
08/05 02:10 25.3 83 19.43 22.2 22 26 1012.2 0 41.8 40.7 78.9 208.6 230.4 800.2
08/05 02:00 25.3 83 19.43 22.2 28 39 1012.3 0 41.8 40.7 78.9 208.7 230.4 800.2
08/05 01:50 25.2 83 19.32 22.1 24 28 1012.4 0 41.6 40.5 78.4 207.6 229.0 795.4
08/05 01:40 25.2 83 19.32 22.1 24 30 1012.5 0 41.6 40.5 78.5 207.6 229.0 795.5
08/05 01:30 25.1 83 19.21 22 24 35 1012.6 0 41.4 40.4 78.0 206.5 227.6 790.6
08/05 01:20 25.3 83 19.43 22.2 26 28 1012.7 0 41.8 40.7 78.9 208.7 230.4 800.5
08/05 01:10 25.3 84 19.66 22.4 26 30 1012.8 0 42.3 41.1 80.0 211.7 234.0 813.0
08/05 01:00 25.3 83 19.43 22.2 26 35 1012.9 0 41.8 40.7 78.9 208.8 230.5 800.6
08/05 00:50 25.2 82 19.09 21.9 24 32 1012.9 0 41.1 40.1 77.4 204.7 225.5 783.3
08/05 00:40 25.2 83 19.32 22.1 26 30 1013 0 41.6 40.5 78.5 207.7 229.1 795.7
08/05 00:30 25.3 82 19.2 22 26 33 1013.1 0 41.4 40.3 77.8 205.9 226.9 788.3
08/05 00:20 25.3 80 18.73 21.6 24 28 1013.2 0 40.4 39.4 75.6 200.0 219.7 763.2
08/05 00:10 25.3 80 18.73 21.6 28 33 1013.3 0 40.4 39.4 75.6 200.0 219.7 763.3
08/05 00:00 25.3 81 18.96 21.8 28 35 1013.4 0 40.8 39.8 76.7 202.9 223.3 775.6
07/05 23:50 25.3 81 18.96 21.8 26 35 1013.5 0 40.8 39.8 76.7 202.9 223.3 775.6
07/05 23:40 25.3 83 19.43 22.2 28 32 1013.6 0 41.8 40.7 78.9 208.9 230.6 801.0
07/05 23:30 25.3 81 18.96 21.8 26 33 1013.7 0 40.8 39.8 76.7 203.0 223.3 775.7
07/05 23:20 25.5 82 19.41 22.2 32 37 1013.8 0 41.8 40.6 78.7 208.1 229.7 797.9
07/05 23:10 25.4 81 19.07 21.9 26 33 1013.9 0 41.1 40.0 77.2 204.1 224.7 780.7
07/05 23:00 25.5 81 19.18 22 32 39 1013.9 0 41.3 40.2 77.6 205.2 226.1 785.6
07/05 22:50 25.4 80 18.83 21.7 35 39 1013.9 0 40.6 39.6 76.0 201.1 221.1 767.9
07/05 22:40 25.5 82 19.41 22.2 28 33 1013.9 0 41.8 40.6 78.7 208.1 229.7 797.9
07/05 22:30 25.5 81 19.18 22 30 39 1013.9 0 41.3 40.2 77.6 205.2 226.1 785.6
07/05 22:20 25.5 82 19.41 22.2 26 32 1013.9 0 41.8 40.6 78.7 208.1 229.7 797.9
07/05 22:10 25.4 81 19.07 21.9 30 37 1014 0 41.1 40.0 77.2 204.1 224.8 780.7
07/05 22:00 25.5 81 19.18 22 30 41 1014 0 41.3 40.2 77.6 205.2 226.2 785.6
07/05 21:50 25.6 81 19.28 22.1 32 35 1014 0 41.5 40.3 77.9 206.2 227.4 789.9
07/05 21:40 25.6 80 19.05 21.9 33 39 1014 0 41.0 39.9 76.9 203.3 223.9 777.6
07/05 21:30 25.6 81 19.28 22.1 30 44 1014 0 41.5 40.3 77.9 206.2 227.4 789.9
07/05 21:20 25.5 82 19.41 22.2 28 33 1014.2 0 41.8 40.6 78.7 208.2 229.7 798.1
07/05 21:10 25.4 85 20.01 22.7 30 41 1014.2 0 43.1 41.8 81.7 216.1 239.4 831.8
07/05 21:00 25.5 84 19.89 22.6 32 41 1014.2 0 42.8 41.5 81.0 214.3 237.2 824.1
07/05 20:50 25.4 83 19.54 22.3 33 41 1014.1 0 42.1 40.9 79.4 210.1 232.1 806.1
07/05 20:40 25.4 83 19.54 22.3 28 33 1014 0 42.1 40.9 79.4 210.0 232.0 806.1
07/05 20:30 25.5 83 19.65 22.4 30 41 1013.9 0 42.3 41.1 79.8 211.1 233.4 810.9
07/05 20:20 25.4 84 19.78 22.5 26 32 1013.9 0 42.6 41.4 80.5 213.1 235.8 819.0
07/05 20:10 25.4 84 19.78 22.5 35 39 1013.9 0 42.6 41.4 80.5 213.1 235.8 819.0

Last Refresh: 08-May-2026 12:10:19

Bureau of Meteorology